sensor_id;sensor_type;location;lat;lon;timestamp;pressure;altitude;pressure_sealevel;temperature;humidity
73870;BME280;64924;42.140;24.762;2023-12-28T00:02:12;100772.19;;;10.27;46.92
73870;BME280;64924;42.140;24.762;2023-12-28T00:04:40;100772.19;;;10.44;46.52
73870;BME280;64924;42.140;24.762;2023-12-28T00:07:05;100667.53;;;9.83;46.30
73870;BME280;64924;42.140;24.762;2023-12-28T00:09:31;100774.44;;;10.56;46.19
73870;BME280;64924;42.140;24.762;2023-12-28T00:11:56;100776.81;;;10.59;45.95
73870;BME280;64924;42.140;24.762;2023-12-28T00:14:22;100783.78;;;10.54;46.35
73870;BME280;64924;42.140;24.762;2023-12-28T00:16:47;100778.84;;;10.49;46.22
73870;BME280;64924;42.140;24.762;2023-12-28T00:19:13;100734.91;;;10.03;46.51
73870;BME280;64924;42.140;24.762;2023-12-28T00:21:38;100803.59;;;10.30;47.02
73870;BME280;64924;42.140;24.762;2023-12-28T00:24:05;100783.50;;;10.15;46.99
73870;BME280;64924;42.140;24.762;2023-12-28T00:26:30;100800.13;;;10.12;47.66
73870;BME280;64924;42.140;24.762;2023-12-28T00:28:56;100772.41;;;9.92;47.28
73870;BME280;64924;42.140;24.762;2023-12-28T00:31:21;100809.00;;;10.22;47.07
73870;BME280;64924;42.140;24.762;2023-12-28T00:33:47;100795.03;;;10.17;46.89
73870;BME280;64924;42.140;24.762;2023-12-28T00:36:14;100824.97;;;10.25;47.17
73870;BME280;64924;42.140;24.762;2023-12-28T00:38:39;100784.16;;;10.00;46.96
73870;BME280;64924;42.140;24.762;2023-12-28T00:41:05;100822.59;;;10.22;47.00
73870;BME280;64924;42.140;24.762;2023-12-28T00:43:30;100783.63;;;10.05;46.63
73870;BME280;64924;42.140;24.762;2023-12-28T00:45:56;100776.84;;;10.01;46.69
73870;BME280;64924;42.140;24.762;2023-12-28T00:48:21;100826.72;;;10.34;46.54
73870;BME280;64924;42.140;24.762;2023-12-28T00:50:47;100828.25;;;10.36;46.53
73870;BME280;64924;42.140;24.762;2023-12-28T00:53:12;100836.56;;;10.43;46.38
73870;BME280;64924;42.140;24.762;2023-12-28T00:55:38;100837.25;;;10.45;46.36
73870;BME280;64924;42.140;24.762;2023-12-28T00:58:03;100834.84;;;10.42;46.46
73870;BME280;64924;42.140;24.762;2023-12-28T01:00:29;100824.00;;;10.42;46.18
73870;BME280;64924;42.140;24.762;2023-12-28T01:02:54;100842.50;;;10.47;45.97
73870;BME280;64924;42.140;24.762;2023-12-28T01:05:20;100853.38;;;10.47;45.91
73870;BME280;64924;42.140;24.762;2023-12-28T01:07:46;100843.03;;;10.50;45.88
73870;BME280;64924;42.140;24.762;2023-12-28T01:10:12;100849.66;;;10.48;45.52
73870;BME280;64924;42.140;24.762;2023-12-28T01:12:37;100809.31;;;10.19;45.53
73870;BME280;64924;42.140;24.762;2023-12-28T01:15:03;100851.00;;;10.35;45.45
73870;BME280;64924;42.140;24.762;2023-12-28T01:17:28;100841.63;;;10.30;45.70
73870;BME280;64924;42.140;24.762;2023-12-28T01:19:54;100845.88;;;10.32;45.44
73870;BME280;64924;42.140;24.762;2023-12-28T01:22:19;100839.34;;;10.17;45.95
73870;BME280;64924;42.140;24.762;2023-12-28T01:24:48;100824.38;;;10.13;45.78
73870;BME280;64924;42.140;24.762;2023-12-28T01:27:15;100847.97;;;10.13;45.93
73870;BME280;64924;42.140;24.762;2023-12-28T01:29:40;100848.28;;;10.01;46.58
73870;BME280;64924;42.140;24.762;2023-12-28T01:32:05;100854.38;;;9.95;46.39
73870;BME280;64924;42.140;24.762;2023-12-28T01:34:31;100840.00;;;9.77;46.61
73870;BME280;64924;42.140;24.762;2023-12-28T01:36:56;100830.38;;;9.83;46.59
73870;BME280;64924;42.140;24.762;2023-12-28T01:39:22;100847.94;;;9.96;46.32
73870;BME280;64924;42.140;24.762;2023-12-28T01:41:47;100834.72;;;10.01;46.25
73870;BME280;64924;42.140;24.762;2023-12-28T01:44:13;100848.63;;;10.06;46.11
73870;BME280;64924;42.140;24.762;2023-12-28T01:46:39;100834.19;;;9.98;46.05
73870;BME280;64924;42.140;24.762;2023-12-28T01:49:05;100846.56;;;9.92;46.27
73870;BME280;64924;42.140;24.762;2023-12-28T01:51:31;100851.81;;;9.94;46.52
73870;BME280;64924;42.140;24.762;2023-12-28T01:53:58;100858.09;;;9.94;46.32
73870;BME280;64924;42.140;24.762;2023-12-28T01:56:23;100851.66;;;9.69;46.53
73870;BME280;64924;42.140;24.762;2023-12-28T01:58:50;100834.69;;;9.67;46.43
73870;BME280;64924;42.140;24.762;2023-12-28T02:01:17;100849.31;;;9.75;46.25
73870;BME280;64924;42.140;24.762;2023-12-28T02:03:44;100854.28;;;9.79;46.12
73870;BME280;64924;42.140;24.762;2023-12-28T02:06:10;100812.28;;;9.57;46.22
73870;BME280;64924;42.140;24.762;2023-12-28T02:08:35;100848.81;;;9.71;46.39
73870;BME280;64924;42.140;24.762;2023-12-28T02:11:01;100866.22;;;9.60;46.88
73870;BME280;64924;42.140;24.762;2023-12-28T02:13:27;100860.91;;;9.51;47.39
73870;BME280;64924;42.140;24.762;2023-12-28T02:16:03;100853.44;;;9.53;47.08
73870;BME280;64924;42.140;24.762;2023-12-28T02:18:36;100839.94;;;9.35;47.64
73870;BME280;64924;42.140;24.762;2023-12-28T02:21:06;100825.25;;;9.20;47.63
73870;BME280;64924;42.140;24.762;2023-12-28T02:23:34;100838.53;;;9.31;47.33
73870;BME280;64924;42.140;24.762;2023-12-28T02:26:00;100860.47;;;9.37;47.24
73870;BME280;64924;42.140;24.762;2023-12-28T02:28:25;100864.94;;;9.47;47.16
73870;BME280;64924;42.140;24.762;2023-12-28T02:30:51;100858.22;;;9.33;47.69
73870;BME280;64924;42.140;24.762;2023-12-28T02:33:43;100861.38;;;9.46;47.63
73870;BME280;64924;42.140;24.762;2023-12-28T02:36:13;100862.47;;;9.35;47.76
73870;BME280;64924;42.140;24.762;2023-12-28T02:38:42;100855.63;;;9.23;48.07
73870;BME280;64924;42.140;24.762;2023-12-28T02:41:08;100863.53;;;9.17;48.02
73870;BME280;64924;42.140;24.762;2023-12-28T02:43:34;100878.72;;;9.27;48.10
73870;BME280;64924;42.140;24.762;2023-12-28T02:46:00;100871.50;;;9.18;48.09
73870;BME280;64924;42.140;24.762;2023-12-28T02:48:25;100883.44;;;9.25;48.19
73870;BME280;64924;42.140;24.762;2023-12-28T02:50:51;100836.44;;;8.99;48.10
73870;BME280;64924;42.140;24.762;2023-12-28T02:53:17;100869.03;;;9.25;48.11
73870;BME280;64924;42.140;24.762;2023-12-28T02:55:42;100880.22;;;9.30;47.76
73870;BME280;64924;42.140;24.762;2023-12-28T02:58:08;100870.34;;;9.21;47.74
73870;BME280;64924;42.140;24.762;2023-12-28T03:00:33;100860.97;;;9.15;47.69
73870;BME280;64924;42.140;24.762;2023-12-28T03:02:59;100822.88;;;8.99;47.61
73870;BME280;64924;42.140;24.762;2023-12-28T03:05:24;100792.81;;;8.84;47.39
73870;BME280;64924;42.140;24.762;2023-12-28T03:07:50;100884.31;;;9.34;47.32
73870;BME280;64924;42.140;24.762;2023-12-28T03:10:16;100828.63;;;8.96;47.36
73870;BME280;64924;42.140;24.762;2023-12-28T03:12:42;100884.81;;;9.29;47.11
73870;BME280;64924;42.140;24.762;2023-12-28T03:15:08;100876.84;;;9.28;47.36
73870;BME280;64924;42.140;24.762;2023-12-28T03:17:33;100883.44;;;9.25;47.56
73870;BME280;64924;42.140;24.762;2023-12-28T03:19:59;100871.44;;;9.10;47.92
73870;BME280;64924;42.140;24.762;2023-12-28T03:22:25;100858.28;;;8.97;48.11
73870;BME280;64924;42.140;24.762;2023-12-28T03:24:51;100873.69;;;8.97;48.21
73870;BME280;64924;42.140;24.762;2023-12-28T03:27:17;100866.94;;;9.01;48.42
73870;BME280;64924;42.140;24.762;2023-12-28T03:29:42;100858.59;;;8.94;48.33
73870;BME280;64924;42.140;24.762;2023-12-28T03:32:08;100865.72;;;8.95;48.85
73870;BME280;64924;42.140;24.762;2023-12-28T03:34:34;100810.47;;;8.53;48.78
73870;BME280;64924;42.140;24.762;2023-12-28T03:37:00;100853.28;;;8.85;48.83
73870;BME280;64924;42.140;24.762;2023-12-28T03:39:25;100856.38;;;8.90;48.85
73870;BME280;64924;42.140;24.762;2023-12-28T03:41:51;100850.09;;;8.89;48.85
73870;BME280;64924;42.140;24.762;2023-12-28T03:44:20;100860.09;;;8.89;49.02
73870;BME280;64924;42.140;24.762;2023-12-28T03:46:49;100821.44;;;8.69;49.18
73870;BME280;64924;42.140;24.762;2023-12-28T03:49:17;100855.81;;;8.86;49.03
73870;BME280;64924;42.140;24.762;2023-12-28T03:51:42;100825.53;;;8.55;49.06
73870;BME280;64924;42.140;24.762;2023-12-28T03:54:08;100870.81;;;8.63;49.48
73870;BME280;64924;42.140;24.762;2023-12-28T03:56:34;100866.97;;;8.48;50.05
73870;BME280;64924;42.140;24.762;2023-12-28T03:59:01;100887.69;;;8.57;49.92
73870;BME280;64924;42.140;24.762;2023-12-28T04:01:27;100875.69;;;8.59;49.77
73870;BME280;64924;42.140;24.762;2023-12-28T04:03:52;100869.56;;;8.57;49.73
73870;BME280;64924;42.140;24.762;2023-12-28T04:06:17;100830.25;;;8.35;49.75
73870;BME280;64924;42.140;24.762;2023-12-28T04:08:43;100862.41;;;8.48;50.07
73870;BME280;64924;42.140;24.762;2023-12-28T04:11:09;100870.38;;;8.50;49.85
73870;BME280;64924;42.140;24.762;2023-12-28T04:13:35;100870.66;;;8.47;49.89
73870;BME280;64924;42.140;24.762;2023-12-28T04:16:02;100878.00;;;8.27;50.52
73870;BME280;64924;42.140;24.762;2023-12-28T04:18:27;100869.34;;;8.23;50.59
73870;BME280;64924;42.140;24.762;2023-12-28T04:20:53;100885.25;;;8.36;50.36
73870;BME280;64924;42.140;24.762;2023-12-28T04:23:18;100872.44;;;8.38;50.00
73870;BME280;64924;42.140;24.762;2023-12-28T04:25:44;100885.50;;;8.43;50.09
73870;BME280;64924;42.140;24.762;2023-12-28T04:28:09;100880.03;;;8.52;49.93
73870;BME280;64924;42.140;24.762;2023-12-28T04:30:35;100878.19;;;8.53;49.84
73870;BME280;64924;42.140;24.762;2023-12-28T04:33:01;100890.63;;;8.46;50.13
73870;BME280;64924;42.140;24.762;2023-12-28T04:35:26;100850.69;;;8.20;50.10
73870;BME280;64924;42.140;24.762;2023-12-28T04:37:52;100904.16;;;8.46;50.09
73870;BME280;64924;42.140;24.762;2023-12-28T04:40:18;100905.03;;;8.46;50.18
73870;BME280;64924;42.140;24.762;2023-12-28T04:42:43;100890.06;;;8.42;50.00
73870;BME280;64924;42.140;24.762;2023-12-28T04:45:09;100894.88;;;8.48;49.89
73870;BME280;64924;42.140;24.762;2023-12-28T04:47:38;100887.78;;;8.47;50.03
73870;BME280;64924;42.140;24.762;2023-12-28T04:50:04;100891.19;;;8.49;49.93
73870;BME280;64924;42.140;24.762;2023-12-28T04:52:30;100882.81;;;8.43;50.12
73870;BME280;64924;42.140;24.762;2023-12-28T04:54:55;100884.22;;;8.47;50.01
73870;BME280;64924;42.140;24.762;2023-12-28T04:57:21;100865.31;;;8.37;49.65
73870;BME280;64924;42.140;24.762;2023-12-28T04:59:49;100883.06;;;8.49;49.46
73870;BME280;64924;42.140;24.762;2023-12-28T05:02:15;100890.25;;;8.58;49.47
73870;BME280;64924;42.140;24.762;2023-12-28T05:04:41;100896.03;;;8.46;49.53
73870;BME280;64924;42.140;24.762;2023-12-28T05:07:06;100804.25;;;7.97;49.10
73870;BME280;64924;42.140;24.762;2023-12-28T05:09:32;100885.63;;;8.51;48.81
73870;BME280;64924;42.140;24.762;2023-12-28T05:11:57;100885.31;;;8.54;48.42
73870;BME280;64924;42.140;24.762;2023-12-28T05:14:23;100880.19;;;8.51;48.52
73870;BME280;64924;42.140;24.762;2023-12-28T05:16:49;100881.50;;;8.47;48.59
73870;BME280;64924;42.140;24.762;2023-12-28T05:19:16;100861.16;;;8.43;48.38
73870;BME280;64924;42.140;24.762;2023-12-28T05:21:41;100875.53;;;8.43;48.51
73870;BME280;64924;42.140;24.762;2023-12-28T05:24:07;100882.97;;;8.41;48.41
73870;BME280;64924;42.140;24.762;2023-12-28T05:26:33;100873.44;;;8.37;48.36
73870;BME280;64924;42.140;24.762;2023-12-28T05:28:59;100886.28;;;8.35;48.34
73870;BME280;64924;42.140;24.762;2023-12-28T05:31:24;100865.31;;;8.27;48.36
73870;BME280;64924;42.140;24.762;2023-12-28T05:33:50;100876.38;;;8.16;48.60
73870;BME280;64924;42.140;24.762;2023-12-28T05:36:15;100888.84;;;7.99;48.73
73870;BME280;64924;42.140;24.762;2023-12-28T05:38:41;100894.44;;;7.88;48.79
73870;BME280;64924;42.140;24.762;2023-12-28T05:41:06;100885.72;;;7.94;48.75
73870;BME280;64924;42.140;24.762;2023-12-28T05:43:32;100898.13;;;7.87;48.96
73870;BME280;64924;42.140;24.762;2023-12-28T05:45:57;100893.72;;;7.86;49.21
73870;BME280;64924;42.140;24.762;2023-12-28T05:48:23;100905.47;;;7.77;49.71
73870;BME280;64924;42.140;24.762;2023-12-28T05:50:48;100892.78;;;7.78;49.59
73870;BME280;64924;42.140;24.762;2023-12-28T05:53:14;100888.03;;;7.89;49.21
73870;BME280;64924;42.140;24.762;2023-12-28T05:55:43;100898.84;;;7.89;49.50
73870;BME280;64924;42.140;24.762;2023-12-28T05:58:09;100897.97;;;7.98;49.26
73870;BME280;64924;42.140;24.762;2023-12-28T06:00:35;100894.69;;;7.95;48.85
73870;BME280;64924;42.140;24.762;2023-12-28T06:03:02;100856.22;;;7.74;48.79
73870;BME280;64924;42.140;24.762;2023-12-28T06:05:28;100889.66;;;8.10;48.58
73870;BME280;64924;42.140;24.762;2023-12-28T06:07:53;100875.75;;;8.22;48.20
73870;BME280;64924;42.140;24.762;2023-12-28T06:10:19;100910.13;;;8.49;47.53
73870;BME280;64924;42.140;24.762;2023-12-28T06:12:45;100905.44;;;8.51;47.36
73870;BME280;64924;42.140;24.762;2023-12-28T06:15:10;100894.44;;;8.53;47.33
73870;BME280;64924;42.140;24.762;2023-12-28T06:17:35;100882.91;;;8.51;47.05
73870;BME280;64924;42.140;24.762;2023-12-28T06:20:01;100906.53;;;8.76;46.99
73870;BME280;64924;42.140;24.762;2023-12-28T06:22:27;100892.81;;;8.78;47.02
73870;BME280;64924;42.140;24.762;2023-12-28T06:24:54;100903.28;;;9.08;46.32
73870;BME280;64924;42.140;24.762;2023-12-28T06:27:20;100918.88;;;9.50;45.54
73870;BME280;64924;42.140;24.762;2023-12-28T06:29:45;100918.97;;;9.66;44.90
73870;BME280;64924;42.140;24.762;2023-12-28T06:32:11;100903.06;;;9.71;44.57
73870;BME280;64924;42.140;24.762;2023-12-28T06:34:37;100911.78;;;10.09;44.24
73870;BME280;64924;42.140;24.762;2023-12-28T06:37:02;100921.13;;;10.48;43.74
73870;BME280;64924;42.140;24.762;2023-12-28T06:39:28;100880.97;;;10.76;42.58
73870;BME280;64924;42.140;24.762;2023-12-28T06:41:53;100862.16;;;11.07;42.03
73870;BME280;64924;42.140;24.762;2023-12-28T06:44:19;100851.25;;;11.31;40.50
73870;BME280;64924;42.140;24.762;2023-12-28T06:46:44;100920.91;;;12.05;39.99
73870;BME280;64924;42.140;24.762;2023-12-28T06:49:09;100918.25;;;12.28;39.25
73870;BME280;64924;42.140;24.762;2023-12-28T06:51:35;100924.91;;;12.65;39.06
73870;BME280;64924;42.140;24.762;2023-12-28T06:54:00;100917.94;;;12.93;38.35
73870;BME280;64924;42.140;24.762;2023-12-28T06:56:26;100919.44;;;13.27;37.99
73870;BME280;64924;42.140;24.762;2023-12-28T06:58:51;100928.94;;;13.54;37.60
73870;BME280;64924;42.140;24.762;2023-12-28T07:01:17;100899.56;;;13.56;37.49
73870;BME280;64924;42.140;24.762;2023-12-28T07:03:43;100927.88;;;13.92;37.21
73870;BME280;64924;42.140;24.762;2023-12-28T07:06:08;100928.81;;;14.14;37.10
73870;BME280;64924;42.140;24.762;2023-12-28T07:08:34;100928.25;;;14.19;37.30
73870;BME280;64924;42.140;24.762;2023-12-28T07:10:59;100886.81;;;14.00;36.77
73870;BME280;64924;42.140;24.762;2023-12-28T07:13:25;100867.69;;;14.00;36.95
73870;BME280;64924;42.140;24.762;2023-12-28T07:15:51;100923.59;;;14.42;36.39
73870;BME280;64924;42.140;24.762;2023-12-28T07:18:17;100909.59;;;14.52;36.13
73870;BME280;64924;42.140;24.762;2023-12-28T07:20:42;100917.13;;;14.79;35.77
73870;BME280;64924;42.140;24.762;2023-12-28T07:23:08;100912.88;;;14.98;35.49
73870;BME280;64924;42.140;24.762;2023-12-28T07:25:34;100913.81;;;15.05;35.40
73870;BME280;64924;42.140;24.762;2023-12-28T07:27:59;100904.50;;;14.99;34.84
73870;BME280;64924;42.140;24.762;2023-12-28T07:30:25;100914.41;;;15.00;35.21
73870;BME280;64924;42.140;24.762;2023-12-28T07:32:51;100873.16;;;14.81;35.15
73870;BME280;64924;42.140;24.762;2023-12-28T07:35:17;100913.81;;;15.05;35.19
73870;BME280;64924;42.140;24.762;2023-12-28T07:37:43;100925.75;;;15.19;34.91
73870;BME280;64924;42.140;24.762;2023-12-28T07:40:11;100917.78;;;15.24;34.40
73870;BME280;64924;42.140;24.762;2023-12-28T07:42:37;100893.09;;;15.17;34.13
73870;BME280;64924;42.140;24.762;2023-12-28T07:45:02;100932.50;;;15.59;34.00
73870;BME280;64924;42.140;24.762;2023-12-28T07:47:29;100919.69;;;15.66;34.06
73870;BME280;64924;42.140;24.762;2023-12-28T07:49:54;100919.00;;;15.85;33.36
73870;BME280;64924;42.140;24.762;2023-12-28T07:52:20;100921.03;;;16.04;33.21
73870;BME280;64924;42.140;24.762;2023-12-28T07:54:45;100924.59;;;16.05;32.57
73870;BME280;64924;42.140;24.762;2023-12-28T07:57:11;100932.16;;;15.96;33.13
73870;BME280;64924;42.140;24.762;2023-12-28T07:59:36;100926.50;;;16.04;33.08
73870;BME280;64924;42.140;24.762;2023-12-28T08:02:02;100919.28;;;15.97;32.71
73870;BME280;64924;42.140;24.762;2023-12-28T08:04:27;100927.50;;;15.97;32.86
73870;BME280;64924;42.140;24.762;2023-12-28T08:06:52;100868.06;;;15.69;32.88
73870;BME280;64924;42.140;24.762;2023-12-28T08:09:18;100910.91;;;16.05;32.71
73870;BME280;64924;42.140;24.762;2023-12-28T08:11:43;100925.41;;;16.27;33.00
73870;BME280;64924;42.140;24.762;2023-12-28T08:14:09;100909.41;;;16.37;32.57
73870;BME280;64924;42.140;24.762;2023-12-28T08:16:34;100928.50;;;16.58;32.47
73870;BME280;64924;42.140;24.762;2023-12-28T08:19:01;100888.94;;;16.33;32.51
73870;BME280;64924;42.140;24.762;2023-12-28T08:21:26;100925.56;;;16.60;32.06
73870;BME280;64924;42.140;24.762;2023-12-28T08:23:53;100908.00;;;16.54;32.22
73870;BME280;64924;42.140;24.762;2023-12-28T08:26:18;100923.31;;;16.70;32.13
73870;BME280;64924;42.140;24.762;2023-12-28T08:28:44;100888.78;;;16.48;31.88
73870;BME280;64924;42.140;24.762;2023-12-28T08:31:10;100927.13;;;16.69;32.02
73870;BME280;64924;42.140;24.762;2023-12-28T08:33:36;100919.09;;;16.74;32.06
73870;BME280;64924;42.140;24.762;2023-12-28T08:36:05;100926.09;;;16.83;31.93
73870;BME280;64924;42.140;24.762;2023-12-28T08:38:30;100925.47;;;16.88;31.84
73870;BME280;64924;42.140;24.762;2023-12-28T08:40:56;100918.56;;;16.98;31.82
73870;BME280;64924;42.140;24.762;2023-12-28T08:43:22;100896.81;;;16.97;31.59
73870;BME280;64924;42.140;24.762;2023-12-28T08:45:47;100907.59;;;17.12;31.47
73870;BME280;64924;42.140;24.762;2023-12-28T08:48:14;100910.38;;;17.25;31.08
73870;BME280;64924;42.140;24.762;2023-12-28T08:50:39;100907.84;;;17.30;31.32
73870;BME280;64924;42.140;24.762;2023-12-28T08:53:05;100913.78;;;17.33;31.27
73870;BME280;64924;42.140;24.762;2023-12-28T08:55:30;100902.13;;;17.25;31.48
73870;BME280;64924;42.140;24.762;2023-12-28T08:57:56;100911.25;;;17.38;31.51
73870;BME280;64924;42.140;24.762;2023-12-28T09:00:21;100892.63;;;17.27;31.40
73870;BME280;64924;42.140;24.762;2023-12-28T09:02:47;100893.66;;;17.20;31.27
73870;BME280;64924;42.140;24.762;2023-12-28T09:05:12;100852.88;;;16.97;31.36
73870;BME280;64924;42.140;24.762;2023-12-28T09:07:38;100891.75;;;17.20;31.62
73870;BME280;64924;42.140;24.762;2023-12-28T09:10:10;100879.75;;;17.28;31.50
73870;BME280;64924;42.140;24.762;2023-12-28T09:12:35;100841.88;;;17.10;30.93
73870;BME280;64924;42.140;24.762;2023-12-28T09:15:01;100874.44;;;17.26;31.26
73870;BME280;64924;42.140;24.762;2023-12-28T09:17:26;100871.50;;;17.34;31.01
73870;BME280;64924;42.140;24.762;2023-12-28T09:19:52;100835.34;;;17.11;31.31
73870;BME280;64924;42.140;24.762;2023-12-28T09:22:17;100863.03;;;17.29;30.80
73870;BME280;64924;42.140;24.762;2023-12-28T09:24:43;100853.75;;;17.37;31.04
73870;BME280;64924;42.140;24.762;2023-12-28T09:27:08;100846.56;;;17.36;30.89
73870;BME280;64924;42.140;24.762;2023-12-28T09:29:34;100849.72;;;17.46;30.77
73870;BME280;64924;42.140;24.762;2023-12-28T09:32:00;100845.28;;;17.45;30.79
73870;BME280;64924;42.140;24.762;2023-12-28T09:34:25;100837.06;;;17.32;30.73
73870;BME280;64924;42.140;24.762;2023-12-28T09:36:51;100767.13;;;16.95;30.74
73870;BME280;64924;42.140;24.762;2023-12-28T09:39:16;100823.09;;;17.27;31.00
73870;BME280;64924;42.140;24.762;2023-12-28T09:41:43;100816.97;;;17.31;30.96
73870;BME280;64924;42.140;24.762;2023-12-28T09:44:12;100803.88;;;17.07;31.24
73870;BME280;64924;42.140;24.762;2023-12-28T09:46:42;100765.41;;;16.81;31.37
73870;BME280;64924;42.140;24.762;2023-12-28T09:49:10;100793.94;;;16.99;31.70
73870;BME280;64924;42.140;24.762;2023-12-28T09:51:36;100780.00;;;17.01;31.60
73870;BME280;64924;42.140;24.762;2023-12-28T09:54:04;100782.34;;;16.97;31.56
73870;BME280;64924;42.140;24.762;2023-12-28T09:56:32;100788.22;;;16.88;31.65
73870;BME280;64924;42.140;24.762;2023-12-28T09:58:58;100783.94;;;16.59;32.22
73870;BME280;64924;42.140;24.762;2023-12-28T10:01:24;100780.81;;;16.08;32.73
73870;BME280;64924;42.140;24.762;2023-12-28T10:03:50;100737.16;;;15.65;33.42
73870;BME280;64924;42.140;24.762;2023-12-28T10:06:16;100775.66;;;15.85;33.56
73870;BME280;64924;42.140;24.762;2023-12-28T10:08:47;100762.75;;;15.79;33.30
73870;BME280;64924;42.140;24.762;2023-12-28T10:11:17;100767.94;;;15.67;33.43
73870;BME280;64924;42.140;24.762;2023-12-28T10:13:43;100761.94;;;15.50;33.68
73870;BME280;64924;42.140;24.762;2023-12-28T10:16:10;100743.06;;;15.34;33.84
73870;BME280;64924;42.140;24.762;2023-12-28T10:18:42;100743.31;;;15.39;34.12
73870;BME280;64924;42.140;24.762;2023-12-28T10:21:11;100737.44;;;15.42;34.25
73870;BME280;64924;42.140;24.762;2023-12-28T10:23:38;100709.94;;;15.29;34.32
73870;BME280;64924;42.140;24.762;2023-12-28T10:26:04;100737.69;;;15.47;34.00
73870;BME280;64924;42.140;24.762;2023-12-28T10:28:34;100732.41;;;15.46;34.20
73870;BME280;64924;42.140;24.762;2023-12-28T10:31:00;100727.28;;;15.36;34.17
73870;BME280;64924;42.140;24.762;2023-12-28T10:33:26;100722.16;;;14.98;34.57
73870;BME280;64924;42.140;24.762;2023-12-28T10:35:52;100715.59;;;14.93;34.70
73870;BME280;64924;42.140;24.762;2023-12-28T10:38:18;100724.00;;;14.91;35.08
73870;BME280;64924;42.140;24.762;2023-12-28T10:40:45;100692.19;;;14.90;34.91
73870;BME280;64924;42.140;24.762;2023-12-28T10:43:15;100714.97;;;15.25;34.81
73870;BME280;64924;42.140;24.762;2023-12-28T10:45:42;100673.59;;;15.07;34.75
73870;BME280;64924;42.140;24.762;2023-12-28T10:48:11;100709.50;;;15.25;34.38
73870;BME280;64924;42.140;24.762;2023-12-28T10:50:47;100706.50;;;15.14;35.72
73870;BME280;64924;42.140;24.762;2023-12-28T10:55:51;100698.94;;;15.16;34.75
73870;BME280;64924;42.140;24.762;2023-12-28T10:58:30;100694.56;;;15.21;34.77
73870;BME280;64924;42.140;24.762;2023-12-28T11:01:02;100694.56;;;15.21;34.98
73870;BME280;64924;42.140;24.762;2023-12-28T11:03:34;100681.97;;;15.33;34.84
73870;BME280;64924;42.140;24.762;2023-12-28T11:06:02;100677.03;;;15.22;34.84
73870;BME280;64924;42.140;24.762;2023-12-28T11:08:32;100614.91;;;14.82;34.83
73870;BME280;64924;42.140;24.762;2023-12-28T11:10:59;100673.50;;;14.94;35.13
73870;BME280;64924;42.140;24.762;2023-12-28T11:13:29;100655.19;;;14.94;35.05
73870;BME280;64924;42.140;24.762;2023-12-28T11:15:56;100661.84;;;15.13;34.96
73870;BME280;64924;42.140;24.762;2023-12-28T11:18:22;100645.69;;;15.18;35.19
73870;BME280;64924;42.140;24.762;2023-12-28T11:20:49;100645.28;;;15.21;34.50
73870;BME280;64924;42.140;24.762;2023-12-28T11:23:16;100644.84;;;15.24;34.71
73870;BME280;64924;42.140;24.762;2023-12-28T11:25:42;100638.50;;;15.17;34.68
73870;BME280;64924;42.140;24.762;2023-12-28T11:28:11;100639.34;;;15.18;34.80
73870;BME280;64924;42.140;24.762;2023-12-28T11:30:37;100620.75;;;15.07;34.86
73870;BME280;64924;42.140;24.762;2023-12-28T11:33:04;100623.59;;;15.26;34.69
73870;BME280;64924;42.140;24.762;2023-12-28T11:35:35;100629.31;;;15.31;34.59
73870;BME280;64924;42.140;24.762;2023-12-28T11:38:02;100589.31;;;14.96;34.58
73870;BME280;64924;42.140;24.762;2023-12-28T11:40:31;100616.81;;;15.16;34.63
73870;BME280;64924;42.140;24.762;2023-12-28T11:42:57;100607.03;;;15.00;34.59
73870;BME280;64924;42.140;24.762;2023-12-28T11:45:23;100621.34;;;15.02;34.69
73870;BME280;64924;42.140;24.762;2023-12-28T11:48:03;100612.59;;;15.13;34.48
73870;BME280;64924;42.140;24.762;2023-12-28T11:50:28;100602.25;;;15.09;34.85
73870;BME280;64924;42.140;24.762;2023-12-28T11:52:54;100601.47;;;15.21;34.61
73870;BME280;64924;42.140;24.762;2023-12-28T11:55:23;100610.78;;;15.33;34.08
73870;BME280;64924;42.140;24.762;2023-12-28T11:57:49;100598.56;;;15.36;34.16
73870;BME280;64924;42.140;24.762;2023-12-28T12:00:14;100605.13;;;15.42;33.96
73870;BME280;64924;42.140;24.762;2023-12-28T12:02:43;100602.47;;;15.55;34.03
73870;BME280;64924;42.140;24.762;2023-12-28T12:05:10;100563.16;;;15.28;34.03
73870;BME280;64924;42.140;24.762;2023-12-28T12:07:35;100602.94;;;15.58;34.05
73870;BME280;64924;42.140;24.762;2023-12-28T12:10:01;100587.13;;;15.67;33.76
73870;BME280;64924;42.140;24.762;2023-12-28T12:12:27;100579.16;;;15.79;33.67
73870;BME280;64924;42.140;24.762;2023-12-28T12:14:52;100584.63;;;15.79;33.22
73870;BME280;64924;42.140;24.762;2023-12-28T12:17:18;100586.69;;;15.57;33.91
73870;BME280;64924;42.140;24.762;2023-12-28T12:19:44;100586.19;;;15.47;33.66
73870;BME280;64924;42.140;24.762;2023-12-28T12:22:14;100584.50;;;15.46;33.82
73870;BME280;64924;42.140;24.762;2023-12-28T12:24:40;100581.13;;;15.44;34.10
73870;BME280;64924;42.140;24.762;2023-12-28T12:27:06;100582.13;;;15.36;34.41
73870;BME280;64924;42.140;24.762;2023-12-28T12:29:32;100570.75;;;15.32;34.15
73870;BME280;64924;42.140;24.762;2023-12-28T12:31:58;100566.72;;;15.22;34.23
73870;BME280;64924;42.140;24.762;2023-12-28T12:34:24;100566.31;;;15.31;34.14
73870;BME280;64924;42.140;24.762;2023-12-28T12:36:49;100552.63;;;15.31;34.18
73870;BME280;64924;42.140;24.762;2023-12-28T12:39:17;100561.72;;;15.38;33.90
73870;BME280;64924;42.140;24.762;2023-12-28T12:41:45;100562.56;;;15.39;34.08